Time;durP1;ratioP1;P1;durP2;ratioP2;P2;SDS_P1;SDS_P2;PMS_P1;PMS_P2;Temp;Humidity;BMP_temperature;BMP_pressure;BME280_temperature;BME280_humidity;BME280_pressure;Samples;Min_cycle;Max_cycle;Signal;HPM_P1;HPM_P2
2023/06/13 00:01:35;;;;;;;5.05;4.38;;;;;;;17.63;38.26;95288.94;4991131;28;20187;-81
2023/06/13 00:04:02;;;;;;;5.10;4.22;;;;;;;17.59;38.42;95290.38;4997696;28;20211;-81
2023/06/13 00:06:29;;;;;;;8.45;5.00;;;;;;;17.49;38.94;95290.75;4988759;28;20211;-81
2023/06/13 00:08:56;;;;;;;6.43;4.18;;;;;;;17.41;39.21;95287.47;4999456;28;20254;-83
2023/06/13 00:11:21;;;;;;;7.38;4.53;;;;;;;17.34;39.30;95282.19;4980688;28;20607;-81
2023/06/13 00:13:46;;;;;;;5.40;4.32;;;;;;;17.32;39.15;95281.59;4999834;28;20206;-83
2023/06/13 00:16:12;;;;;;;6.15;4.82;;;;;;;17.34;39.67;95291.88;4987683;28;20595;-83
2023/06/13 00:18:37;;;;;;;6.15;4.55;;;;;;;17.20;39.70;95286.56;4982018;28;20183;-83
2023/06/13 00:21:03;;;;;;;6.60;4.57;;;;;;;17.23;39.62;95286.19;4982511;28;20199;-83
2023/06/13 00:23:29;;;;;;;6.57;4.07;;;;;;;17.15;39.99;95288.97;4985973;28;20214;-82
2023/06/13 00:25:56;;;;;;;5.82;4.53;;;;;;;17.13;40.15;95282.28;4994007;28;20222;-83
2023/06/13 00:28:21;;;;;;;5.55;4.40;;;;;;;17.16;39.93;95289.78;4983203;28;20215;-83
2023/06/13 00:30:47;;;;;;;6.55;4.70;;;;;;;17.11;40.00;95285.09;4989969;28;20191;-83
2023/06/13 00:33:16;;;;;;;5.22;4.47;;;;;;;17.08;40.13;95284.69;4994749;28;20567;-83
2023/06/13 00:35:44;;;;;;;5.72;4.72;;;;;;;17.00;40.49;95280.41;4973575;28;20238;-83
2023/06/13 00:38:10;;;;;;;5.40;4.90;;;;;;;16.97;40.77;95279.00;4962836;28;20176;-83
2023/06/13 00:40:36;;;;;;;7.45;4.82;;;;;;;16.90;40.79;95285.19;4977683;28;20203;-80
2023/06/13 00:43:01;;;;;;;6.68;4.30;;;;;;;16.88;41.07;95280.16;4987353;28;20221;-82
2023/06/13 00:45:28;;;;;;;4.93;4.40;;;;;;;16.84;40.88;95281.53;4993999;28;20303;-81
2023/06/13 00:47:57;;;;;;;6.80;5.25;;;;;;;16.80;40.82;95277.69;4987090;28;20203;-83
2023/06/13 00:50:26;;;;;;;7.80;5.05;;;;;;;16.75;41.15;95276.63;4978664;28;20191;-82
2023/06/13 00:52:54;;;;;;;5.55;4.30;;;;;;;16.75;41.24;95281.88;4997227;28;20238;-83
2023/06/13 00:55:21;;;;;;;5.97;5.07;;;;;;;16.68;41.35;95272.13;5002448;28;20186;-83
2023/06/13 00:57:48;;;;;;;5.30;4.38;;;;;;;16.63;41.48;95274.50;4987213;28;20191;-83
2023/06/13 01:00:14;;;;;;;6.70;4.43;;;;;;;16.62;41.53;95267.66;4973981;28;20199;-83
2023/06/13 01:02:40;;;;;;;4.93;4.35;;;;;;;16.61;41.56;95268.66;4982788;28;20179;-83
2023/06/13 01:05:05;;;;;;;7.45;4.50;;;;;;;16.61;41.63;95266.03;4994368;28;20214;-83
2023/06/13 01:07:34;;;;;;;6.68;4.60;;;;;;;16.52;41.79;95255.84;4982814;28;20192;-82
2023/06/13 01:10:00;;;;;;;6.82;4.68;;;;;;;16.49;42.08;95256.25;4992680;28;20183;-84
2023/06/13 01:12:30;;;;;;;8.02;4.90;;;;;;;16.43;41.76;95260.44;4972220;28;20284;-84
2023/06/13 01:15:04;;;;;;;6.75;5.35;;;;;;;16.39;42.23;95253.97;4972703;28;20217;-83
2023/06/13 01:17:34;;;;;;;5.63;5.07;;;;;;;16.40;42.25;95255.59;4977424;28;20645;-83
2023/06/13 01:20:00;;;;;;;6.63;4.43;;;;;;;16.33;42.37;95271.25;4988319;28;20236;-83
2023/06/13 01:22:45;;;;;;;4.95;4.45;;;;;;;16.34;42.46;95261.56;4971357;28;20711;-82
2023/06/13 01:25:37;;;;;;;6.63;4.85;;;;;;;16.26;43.00;95266.97;4985695;28;20599;-82
2023/06/13 01:28:03;;;;;;;9.05;4.57;;;;;;;16.27;42.69;95265.97;5005983;28;20182;-83
2023/06/13 01:30:28;;;;;;;6.28;4.30;;;;;;;16.25;42.85;95260.91;4998147;28;20643;-84
2023/06/13 01:32:54;;;;;;;5.63;4.80;;;;;;;16.23;43.15;95256.84;4991328;28;20203;-83
2023/06/13 01:35:21;;;;;;;7.40;4.57;;;;;;;16.18;43.24;95260.06;4979331;28;20191;-83
2023/06/13 01:37:47;;;;;;;6.60;4.82;;;;;;;16.07;43.31;95248.25;4989106;28;20191;-83
2023/06/13 01:40:15;;;;;;;7.20;4.65;;;;;;;16.12;43.38;95256.38;4989210;28;20191;-84
2023/06/13 01:42:40;;;;;;;8.70;4.70;;;;;;;16.08;43.68;95259.56;4984711;28;20263;-84
2023/06/13 01:45:06;;;;;;;5.57;4.88;;;;;;;16.02;43.70;95253.28;4985129;28;20298;-83
2023/06/13 01:47:35;;;;;;;5.70;4.75;;;;;;;16.02;43.92;95247.22;4992013;28;20215;-81
2023/06/13 01:50:12;;;;;;;8.02;4.53;;;;;;;15.99;43.93;95240.56;4995058;28;20181;-83
2023/06/13 01:52:50;;;;;;;5.07;4.50;;;;;;;15.83;44.19;95241.63;4975767;28;20198;-83
2023/06/13 01:55:21;;;;;;;5.93;5.00;;;;;;;15.80;44.35;95238.53;4997702;28;20176;-83
2023/06/13 01:57:57;;;;;;;4.57;4.07;;;;;;;15.73;44.46;95235.09;4984727;28;20194;-82
2023/06/13 02:00:23;;;;;;;6.25;4.63;;;;;;;15.73;44.55;95238.50;4977308;28;20186;-84
2023/06/13 02:02:48;;;;;;;5.43;4.88;;;;;;;15.64;44.71;95233.59;4977077;28;20275;-84
2023/06/13 02:05:14;;;;;;;6.13;5.05;;;;;;;15.60;44.70;95235.72;4988828;28;20243;-82
2023/06/13 02:07:40;;;;;;;6.82;4.70;;;;;;;15.66;44.80;95234.19;4987937;28;20188;-82
2023/06/13 02:10:06;;;;;;;5.57;5.03;;;;;;;15.58;44.90;95241.13;4978811;28;20187;-83
2023/06/13 02:12:32;;;;;;;5.40;4.43;;;;;;;15.55;44.92;95231.06;4986327;28;20184;-82
2023/06/13 02:14:59;;;;;;;5.85;4.65;;;;;;;15.49;45.63;95237.00;4995837;28;20231;-83
2023/06/13 02:17:25;;;;;;;5.53;4.32;;;;;;;15.50;45.31;95236.00;4973201;28;20238;-83
2023/06/13 02:19:50;;;;;;;5.18;4.68;;;;;;;15.43;45.31;95235.13;4983280;28;20274;-82
2023/06/13 02:22:15;;;;;;;5.10;4.60;;;;;;;15.40;45.46;95235.50;4980539;28;20298;-83
2023/06/13 02:24:41;;;;;;;6.88;4.80;;;;;;;15.41;45.59;95234.50;4986042;28;20409;-81
2023/06/13 02:27:07;;;;;;;5.38;4.88;;;;;;;15.33;45.90;95229.38;4997070;28;20187;-82
2023/06/13 02:29:33;;;;;;;6.03;4.68;;;;;;;15.30;45.93;95235.00;4999579;28;20190;-83
2023/06/13 02:31:59;;;;;;;6.32;5.00;;;;;;;15.31;46.02;95231.38;5000991;28;20174;-82
2023/06/13 02:34:24;;;;;;;5.88;4.32;;;;;;;15.27;46.09;95227.50;5002214;28;20254;-81
2023/06/13 02:36:49;;;;;;;7.82;4.47;;;;;;;15.14;46.35;95225.56;5007435;28;20199;-81
2023/06/13 02:39:15;;;;;;;4.90;4.35;;;;;;;15.16;46.41;95223.56;4982100;28;20265;-81
2023/06/13 02:41:40;;;;;;;6.05;4.60;;;;;;;15.08;46.52;95221.03;4999112;28;20183;-82
2023/06/13 02:44:05;;;;;;;5.57;4.47;;;;;;;15.13;46.32;95223.13;5022273;28;20202;-83
2023/06/13 02:46:30;;;;;;;5.07;4.53;;;;;;;15.08;46.64;95218.44;4996377;28;20207;-82
2023/06/13 02:48:56;;;;;;;5.13;4.63;;;;;;;15.15;46.64;95216.72;4992778;28;20222;-83
2023/06/13 02:51:21;;;;;;;7.25;4.80;;;;;;;15.03;46.43;95218.19;4985822;28;20203;-83
2023/06/13 02:53:46;;;;;;;8.13;4.68;;;;;;;14.95;46.87;95224.31;5000276;28;20227;-82
2023/06/13 02:56:12;;;;;;;7.65;4.70;;;;;;;14.93;47.15;95217.63;4969884;28;20210;-83
2023/06/13 02:58:37;;;;;;;6.45;4.60;;;;;;;14.87;47.14;95223.63;4992190;28;20219;-83
2023/06/13 03:01:03;;;;;;;6.15;4.85;;;;;;;14.85;47.48;95220.38;4995791;28;20179;-84
2023/06/13 03:03:29;;;;;;;6.88;4.45;;;;;;;14.82;47.71;95221.53;4987399;28;20214;-83
2023/06/13 03:05:59;;;;;;;6.38;4.85;;;;;;;14.87;47.49;95221.81;4982056;28;20341;-83
2023/06/13 03:08:26;;;;;;;4.97;4.25;;;;;;;14.77;47.98;95220.47;4991867;28;20183;-83
2023/06/13 03:10:52;;;;;;;5.40;4.50;;;;;;;14.86;47.69;95227.22;4984014;28;20270;-83
2023/06/13 03:13:18;;;;;;;5.13;4.22;;;;;;;14.90;47.90;95223.25;4980045;28;20286;-82
2023/06/13 03:15:45;;;;;;;8.35;4.50;;;;;;;14.80;47.82;95217.47;4987835;28;20187;-82
2023/06/13 03:18:11;;;;;;;5.80;4.18;;;;;;;14.72;48.14;95226.22;4978019;28;20559;-83
2023/06/13 03:20:37;;;;;;;5.00;4.43;;;;;;;14.77;48.20;95233.53;4975957;28;20180;-83
2023/06/13 03:23:02;;;;;;;5.28;4.60;;;;;;;14.81;48.26;95229.56;4985397;28;20184;-83
2023/06/13 03:25:27;;;;;;;5.23;4.60;;;;;;;14.83;48.35;95233.59;4979527;28;20225;-82
2023/06/13 03:27:53;;;;;;;5.55;4.75;;;;;;;14.82;48.35;95239.81;4986227;28;20267;-83
2023/06/13 03:30:18;;;;;;;6.43;4.57;;;;;;;14.76;48.60;95237.97;5010593;28;20187;-83
2023/06/13 03:32:43;;;;;;;4.78;4.20;;;;;;;14.78;48.72;95235.16;4994177;28;20194;-83
2023/06/13 03:35:09;;;;;;;6.70;4.60;;;;;;;14.81;48.31;95242.63;4978743;28;20203;-83
2023/06/13 03:37:34;;;;;;;7.88;4.95;;;;;;;14.82;48.54;95247.66;4960571;28;20237;-83
2023/06/13 03:39:59;;;;;;;6.05;4.60;;;;;;;14.95;48.30;95244.44;4982663;28;20195;-83
2023/06/13 03:42:24;;;;;;;5.20;4.50;;;;;;;15.08;48.06;95251.63;4989172;28;20238;-83
2023/06/13 03:44:50;;;;;;;5.00;4.10;;;;;;;15.69;46.83;95249.53;4992760;28;20570;-81
2023/06/13 03:47:15;;;;;;;7.13;4.32;;;;;;;16.25;45.43;95254.84;4979917;28;20179;-82
2023/06/13 03:49:42;;;;;;;6.90;5.28;;;;;;;17.08;43.64;95247.97;4944794;28;20238;-83
2023/06/13 03:52:07;;;;;;;4.28;3.88;;;;;;;18.36;40.62;95260.19;4964795;28;20993;-83
2023/06/13 03:54:33;;;;;;;4.57;4.10;;;;;;;19.50;38.38;95257.13;4966979;28;20227;-83
2023/06/13 03:56:58;;;;;;;5.03;4.20;;;;;;;20.45;36.72;95262.47;4984818;28;20186;-83
2023/06/13 03:59:24;;;;;;;7.97;4.05;;;;;;;21.55;34.28;95257.25;4985687;28;20191;-83
2023/06/13 04:01:49;;;;;;;7.18;4.05;;;;;;;21.35;34.15;95265.44;4983194;28;20187;-82
2023/06/13 04:04:15;;;;;;;6.32;4.47;;;;;;;22.77;31.78;95270.94;4978440;28;20650;-82
2023/06/13 04:06:41;;;;;;;6.30;4.20;;;;;;;22.64;31.70;95265.88;4984157;28;20217;-82
2023/06/13 04:09:07;;;;;;;5.40;4.55;;;;;;;23.19;31.14;95266.34;4987624;28;20171;-83
2023/06/13 04:11:33;;;;;;;5.22;4.28;;;;;;;23.39;30.90;95268.59;4969615;28;20719;-83
2023/06/13 04:14:00;;;;;;;6.68;4.88;;;;;;;24.69;28.55;95269.66;5003756;28;20199;-81
2023/06/13 04:16:25;;;;;;;5.85;4.10;;;;;;;24.76;29.05;95273.75;4977198;28;20187;-82
2023/06/13 04:18:54;;;;;;;5.55;3.83;;;;;;;25.35;27.98;95276.72;4971087;28;20279;-81
2023/06/13 04:21:21;;;;;;;4.20;3.70;;;;;;;24.94;29.13;95275.34;4979478;28;20243;-83
2023/06/13 04:23:48;;;;;;;5.00;3.88;;;;;;;24.46;28.77;95279.38;4977331;28;20646;-81
2023/06/13 04:26:17;;;;;;;4.68;3.80;;;;;;;25.20;28.46;95273.88;4984696;28;20726;-83
2023/06/13 04:28:43;;;;;;;4.10;3.70;;;;;;;25.86;27.85;95266.72;4986869;28;20175;-83
2023/06/13 04:31:16;;;;;;;4.25;3.85;;;;;;;25.85;26.87;95277.59;4980530;28;20302;-84
2023/06/13 04:33:46;;;;;;;6.40;3.70;;;;;;;27.94;24.80;95279.91;4969180;28;20198;-84
2023/06/13 04:36:12;;;;;;;4.80;4.32;;;;;;;26.13;26.83;95285.34;4990740;28;20233;-82
2023/06/13 04:38:39;;;;;;;5.10;3.47;;;;;;;26.96;25.93;95285.00;5002879;28;20190;-83
2023/06/13 04:41:13;;;;;;;4.15;3.80;;;;;;;27.31;25.51;95295.13;4978159;28;20207;-83
2023/06/13 04:43:38;;;;;;;4.60;3.90;;;;;;;29.07;22.47;95297.69;4981435;28;20266;-83
2023/06/13 04:46:04;;;;;;;4.28;3.88;;;;;;;28.00;24.28;95305.53;4983880;28;20317;-82
2023/06/13 04:48:30;;;;;;;4.93;4.15;;;;;;;28.16;24.23;95309.06;4987853;28;20190;-81
2023/06/13 04:50:58;;;;;;;4.28;3.72;;;;;;;27.73;24.38;95302.25;4986230;28;20356;-82
2023/06/13 04:53:24;;;;;;;5.03;4.00;;;;;;;27.99;24.45;95300.47;4989541;28;20207;-80
2023/06/13 04:55:50;;;;;;;5.70;3.95;;;;;;;29.29;22.55;95310.72;5002853;28;20195;-81
2023/06/13 04:58:17;;;;;;;3.58;3.17;;;;;;;30.71;21.31;95301.25;4986791;28;20184;-81
2023/06/13 05:00:43;;;;;;;3.88;3.38;;;;;;;30.53;21.34;95302.72;5011676;28;20182;-81
2023/06/13 05:03:09;;;;;;;4.43;3.55;;;;;;;30.72;20.67;95300.97;4991515;28;20194;-80
2023/06/13 05:05:34;;;;;;;6.32;3.25;;;;;;;30.65;21.01;95297.00;4983800;28;20210;-80
2023/06/13 05:08:00;;;;;;;4.28;3.47;;;;;;;31.41;20.10;95308.97;4952274;28;20527;-81
2023/06/13 05:10:26;;;;;;;5.30;3.53;;;;;;;29.88;21.75;95308.16;4988553;28;20707;-82
2023/06/13 05:12:52;;;;;;;5.78;3.65;;;;;;;29.66;21.54;95301.56;4976933;28;20192;-81
2023/06/13 05:15:19;;;;;;;6.80;3.47;;;;;;;31.15;19.73;95308.38;4985867;28;20199;-82
2023/06/13 05:17:48;;;;;;;5.53;3.70;;;;;;;30.95;20.33;95306.69;4970399;28;20270;-83
2023/06/13 05:20:14;;;;;;;6.22;3.30;;;;;;;30.99;20.61;95305.03;4978175;28;20221;-83
2023/06/13 05:22:43;;;;;;;4.85;2.92;;;;;;;29.97;21.42;95297.69;4998324;28;20194;-80
2023/06/13 05:25:09;;;;;;;4.90;3.30;;;;;;;31.25;19.71;95306.44;5006739;28;20239;-80
2023/06/13 05:27:35;;;;;;;4.22;3.45;;;;;;;31.62;19.74;95306.84;5006598;28;20251;-80
2023/06/13 05:30:00;;;;;;;6.47;3.35;;;;;;;31.16;19.85;95302.75;5020392;28;20214;-78
2023/06/13 05:32:26;;;;;;;4.90;3.45;;;;;;;30.56;20.42;95299.47;4997599;28;20251;-82
2023/06/13 05:34:51;;;;;;;3.35;2.90;;;;;;;31.69;19.61;95299.25;4992958;28;20579;-82
2023/06/13 05:37:17;;;;;;;4.03;3.30;;;;;;;31.39;19.73;95298.53;4985449;28;20184;-81
2023/06/13 05:39:43;;;;;;;3.42;3.13;;;;;;;31.56;19.39;95311.50;5002295;28;20191;-81
2023/06/13 05:42:08;;;;;;;6.32;3.25;;;;;;;31.13;19.50;95306.00;4988584;28;20176;-79
2023/06/13 05:44:34;;;;;;;6.63;3.38;;;;;;;31.66;19.56;95311.38;5002652;28;20715;-81
2023/06/13 05:46:59;;;;;;;4.75;3.35;;;;;;;31.10;19.80;95317.28;4982325;28;20274;-81
2023/06/13 05:49:25;;;;;;;3.95;3.28;;;;;;;30.31;20.73;95311.19;5000665;28;20191;-79
2023/06/13 05:51:51;;;;;;;4.30;3.22;;;;;;;31.40;19.20;95307.38;5013396;28;20183;-81
2023/06/13 05:54:16;;;;;;;3.85;3.55;;;;;;;32.38;18.72;95305.91;5013902;28;20207;-79
2023/06/13 05:56:42;;;;;;;6.70;3.20;;;;;;;30.68;19.70;95301.84;5009172;28;20199;-80
2023/06/13 05:59:07;;;;;;;5.43;3.08;;;;;;;32.15;18.39;95296.81;5015247;28;20198;-80
2023/06/13 06:01:34;;;;;;;4.43;3.00;;;;;;;31.14;18.61;95299.53;4977799;28;20183;-82
2023/06/13 06:03:59;;;;;;;6.43;3.00;;;;;;;30.98;18.85;95295.41;4984435;28;20239;-81
2023/06/13 06:06:24;;;;;;;3.35;3.05;;;;;;;30.25;19.38;95292.72;4993979;28;20638;-80
2023/06/13 06:08:50;;;;;;;4.85;3.10;;;;;;;30.47;19.33;95290.41;4997961;28;20175;-85
2023/06/13 06:11:15;;;;;;;4.68;3.00;;;;;;;29.65;19.15;95286.56;4963620;28;20726;-84
2023/06/13 06:13:40;;;;;;;4.45;3.20;;;;;;;29.94;18.98;95276.00;4966637;28;20218;-83
2023/06/13 06:16:06;;;;;;;5.70;3.20;;;;;;;30.42;18.58;95283.22;4985189;28;20225;-83
2023/06/13 06:18:31;;;;;;;4.30;3.20;;;;;;;29.63;18.44;95296.75;4989078;28;21115;-83
2023/06/13 06:20:56;;;;;;;4.65;3.00;;;;;;;29.96;18.28;95290.72;4983622;28;20683;-83
2023/06/13 06:23:22;;;;;;;3.60;3.00;;;;;;;28.34;19.40;95300.56;4996239;28;20230;-82
2023/06/13 06:25:47;;;;;;;5.15;2.92;;;;;;;29.25;18.69;95299.78;4982023;28;20215;-83
2023/06/13 06:28:12;;;;;;;4.47;3.00;;;;;;;29.50;18.75;95308.81;4978205;28;20187;-83
2023/06/13 06:30:38;;;;;;;5.13;2.80;;;;;;;28.94;19.06;95306.25;5013229;28;20183;-82
2023/06/13 06:33:03;;;;;;;5.57;3.30;;;;;;;28.46;19.59;95311.03;4974710;28;20191;-83
2023/06/13 06:35:30;;;;;;;5.00;2.95;;;;;;;28.11;19.79;95304.53;4965929;28;20648;-83
2023/06/13 06:37:56;;;;;;;6.57;2.92;;;;;;;28.24;19.72;95308.53;4997065;28;20650;-83
2023/06/13 06:40:21;;;;;;;5.03;3.28;;;;;;;29.10;18.80;95307.03;4971339;28;20306;-84
2023/06/13 06:42:47;;;;;;;3.63;2.97;;;;;;;29.33;18.56;95309.94;4965126;28;20596;-84
2023/06/13 06:45:12;;;;;;;5.25;2.88;;;;;;;28.04;19.78;95303.16;4987804;28;20706;-83
2023/06/13 06:47:39;;;;;;;7.75;3.10;;;;;;;27.79;20.31;95303.88;4994202;28;20231;-83
2023/06/13 06:50:04;;;;;;;3.58;2.95;;;;;;;27.66;20.40;95307.84;4996162;28;20678;-82
2023/06/13 06:52:30;;;;;;;5.43;3.00;;;;;;;28.55;19.25;95300.63;4993466;28;20196;-84
2023/06/13 06:54:55;;;;;;;2.95;2.60;;;;;;;27.92;20.16;95293.53;4993769;28;20298;-83
2023/06/13 06:57:20;;;;;;;3.90;2.95;;;;;;;28.83;19.07;95305.41;4984518;28;20230;-84
2023/06/13 06:59:46;;;;;;;6.43;2.95;;;;;;;26.80;20.38;95287.56;4977513;28;20201;-83
2023/06/13 07:02:11;;;;;;;7.50;2.95;;;;;;;26.19;21.71;95287.00;4979017;28;20986;-82
2023/06/13 07:04:36;;;;;;;2.83;2.50;;;;;;;26.94;19.91;95292.44;4971595;28;20227;-82
2023/06/13 07:07:02;;;;;;;5.68;2.85;;;;;;;26.94;20.54;95295.09;4988105;28;20195;-85
2023/06/13 07:09:44;;;;;;;7.05;2.78;;;;;;;26.38;21.16;95297.31;4994530;28;20702;-85
2023/06/13 07:12:10;;;;;;;3.55;2.75;;;;;;;27.16;20.42;95295.00;4995117;28;20998;-83
2023/06/13 07:14:35;;;;;;;5.43;2.85;;;;;;;27.59;20.06;95296.56;4983211;28;20243;-84
2023/06/13 07:17:00;;;;;;;3.75;2.85;;;;;;;28.70;19.29;95295.25;4984530;28;20195;-81
2023/06/13 07:19:26;;;;;;;4.85;3.28;;;;;;;29.17;18.69;95296.88;4993191;28;20203;-83
2023/06/13 07:21:51;;;;;;;4.43;2.80;;;;;;;28.24;19.08;95297.84;4992165;28;20211;-83
2023/06/13 07:24:16;;;;;;;5.05;3.00;;;;;;;29.10;18.71;95309.69;4970090;28;20212;-83
2023/06/13 07:26:42;;;;;;;7.50;3.10;;;;;;;28.23;19.34;95301.59;4991430;28;20958;-83
2023/06/13 07:29:07;;;;;;;4.60;2.58;;;;;;;26.73;20.39;95300.28;4983832;28;20597;-83
2023/06/13 07:31:32;;;;;;;4.07;3.00;;;;;;;26.43;20.89;95308.84;4985620;28;20187;-83
2023/06/13 07:33:58;;;;;;;5.97;3.30;;;;;;;26.23;21.45;95304.06;5007230;28;20265;-83
2023/06/13 07:36:23;;;;;;;5.07;3.38;;;;;;;26.34;22.32;95290.88;4977166;28;20180;-83
2023/06/13 07:38:51;;;;;;;5.63;3.08;;;;;;;27.30;20.66;95293.50;4988303;28;20183;-84
2023/06/13 07:41:16;;;;;;;3.75;2.88;;;;;;;26.42;21.28;95295.78;4965818;28;20196;-82
2023/06/13 07:43:41;;;;;;;3.25;2.95;;;;;;;27.38;20.80;95293.78;4969237;28;20218;-82
2023/06/13 07:46:06;;;;;;;4.57;3.03;;;;;;;26.93;21.05;95296.16;4951736;28;20220;-84
2023/06/13 07:48:32;;;;;;;4.05;3.10;;;;;;;26.29;20.81;95296.13;4985383;28;20187;-83
2023/06/13 07:50:57;;;;;;;5.65;3.22;;;;;;;26.52;21.14;95293.19;4974469;28;20659;-82
2023/06/13 07:53:23;;;;;;;4.03;2.75;;;;;;;26.57;20.98;95295.88;4994965;28;20587;-84
2023/06/13 07:55:49;;;;;;;3.13;2.85;;;;;;;25.55;22.47;95286.00;4978217;28;20271;-83
2023/06/13 07:58:14;;;;;;;6.32;3.33;;;;;;;25.82;22.38;95278.13;5001752;28;20558;-82
2023/06/13 08:00:40;;;;;;;6.50;3.20;;;;;;;25.89;22.21;95281.38;4962895;28;20211;-84
2023/06/13 08:03:05;;;;;;;4.05;3.10;;;;;;;25.99;21.72;95273.50;4983276;28;20237;-83
2023/06/13 08:05:31;;;;;;;5.82;3.35;;;;;;;25.93;21.59;95280.63;4967341;28;20207;-84
2023/06/13 08:07:57;;;;;;;3.30;2.97;;;;;;;26.15;21.88;95277.94;4956818;28;20243;-81
2023/06/13 08:10:23;;;;;;;6.82;2.97;;;;;;;25.25;22.19;95284.56;4989061;28;20577;-84
2023/06/13 08:12:48;;;;;;;6.75;3.20;;;;;;;25.06;23.71;95286.69;4967535;28;20191;-82
2023/06/13 08:15:14;;;;;;;6.32;3.00;;;;;;;25.30;23.25;95286.50;5003364;28;20218;-80
2023/06/13 08:17:41;;;;;;;6.40;3.00;;;;;;;25.67;23.05;95282.16;4998763;28;20514;-82
2023/06/13 08:20:08;;;;;;;4.15;3.30;;;;;;;24.40;23.06;95284.84;4985774;28;20210;-84
2023/06/13 08:22:34;;;;;;;5.63;3.45;;;;;;;23.95;24.32;95282.97;4991139;28;20198;-83
2023/06/13 08:24:59;;;;;;;6.68;3.63;;;;;;;23.60;24.41;95283.91;5014118;28;20216;-84
2023/06/13 08:27:24;;;;;;;8.40;3.00;;;;;;;23.58;25.45;95285.13;4985947;28;20289;-83
2023/06/13 08:29:51;;;;;;;3.42;3.05;;;;;;;23.18;24.53;95277.97;4975590;28;20275;-82
2023/06/13 08:32:16;;;;;;;5.63;3.30;;;;;;;23.65;25.15;95270.75;4992980;28;20602;-83
2023/06/13 08:34:41;;;;;;;8.88;3.83;;;;;;;22.80;26.07;95281.88;4975484;28;20194;-84
2023/06/13 08:37:07;;;;;;;5.40;3.60;;;;;;;21.93;27.26;95278.13;4971019;28;20204;-84
2023/06/13 08:39:32;;;;;;;8.68;3.67;;;;;;;21.93;26.96;95288.69;4983216;28;20183;-83
2023/06/13 08:41:58;;;;;;;7.22;3.40;;;;;;;22.03;26.91;95283.66;4972779;28;20701;-84
2023/06/13 08:44:25;;;;;;;8.48;3.38;;;;;;;21.72;28.65;95282.03;4980383;28;20230;-83
2023/06/13 08:46:50;;;;;;;6.03;3.30;;;;;;;22.25;27.78;95287.44;4984806;28;20195;-83
2023/06/13 08:49:16;;;;;;;3.92;3.20;;;;;;;22.18;26.90;95285.94;4966893;28;20194;-84
2023/06/13 08:51:41;;;;;;;6.97;3.22;;;;;;;21.56;28.41;95283.47;4998365;28;20188;-84
2023/06/13 08:54:09;;;;;;;6.57;3.88;;;;;;;21.45;27.36;95286.84;4988348;28;20234;-82
2023/06/13 08:56:35;;;;;;;5.63;3.33;;;;;;;21.36;27.20;95280.25;4985820;28;20211;-83
2023/06/13 08:59:05;;;;;;;6.22;3.17;;;;;;;21.88;26.92;95280.63;4987848;28;20217;-83
2023/06/13 09:01:31;;;;;;;3.60;3.03;;;;;;;21.75;26.67;95278.97;4971921;28;20756;-83
2023/06/13 09:03:57;;;;;;;4.05;3.00;;;;;;;21.87;26.03;95271.88;4974825;28;20237;-84
2023/06/13 09:06:23;;;;;;;6.95;3.15;;;;;;;21.79;26.33;95274.84;4977390;28;20216;-82
2023/06/13 09:08:50;;;;;;;3.95;2.95;;;;;;;22.50;25.91;95281.16;4990482;28;20180;-84
2023/06/13 09:11:15;;;;;;;9.00;3.55;;;;;;;22.89;25.11;95272.59;4970303;28;20262;-83
2023/06/13 09:13:43;;;;;;;4.40;3.15;;;;;;;22.46;24.86;95272.06;4990527;28;20211;-83
2023/06/13 09:16:09;;;;;;;4.28;3.30;;;;;;;22.00;26.24;95279.66;4987466;28;20218;-83
2023/06/13 09:18:36;;;;;;;4.40;3.20;;;;;;;21.71;27.14;95281.25;4985875;28;20167;-82
2023/06/13 09:21:02;;;;;;;5.03;3.80;;;;;;;21.45;26.77;95282.38;4986926;28;20190;-82
2023/06/13 09:23:27;;;;;;;7.88;3.25;;;;;;;21.88;27.30;95265.56;4999037;28;20655;-82
2023/06/13 09:25:52;;;;;;;6.78;3.70;;;;;;;21.98;26.63;95268.47;4977106;28;20254;-84
2023/06/13 09:28:32;;;;;;;3.85;3.22;;;;;;;22.06;26.55;95262.88;4989931;28;20187;-84
2023/06/13 09:30:57;;;;;;;4.55;3.28;;;;;;;21.69;25.97;95275.38;4978817;28;20197;-84
2023/06/13 09:33:23;;;;;;;6.35;3.58;;;;;;;21.76;27.11;95256.81;5003925;28;20318;-84
2023/06/13 09:35:50;;;;;;;4.20;3.30;;;;;;;22.16;26.22;95262.34;4948576;28;20267;-85
2023/06/13 09:38:17;;;;;;;4.53;3.67;;;;;;;21.74;26.30;95275.53;4985480;28;20199;-85
2023/06/13 09:40:45;;;;;;;4.50;3.72;;;;;;;21.56;27.00;95262.34;4986782;28;20196;-84
2023/06/13 09:43:12;;;;;;;5.93;3.45;;;;;;;22.01;26.26;95275.16;4987533;28;20212;-84
2023/06/13 09:45:38;;;;;;;5.68;3.28;;;;;;;21.59;26.18;95272.47;4987814;28;20709;-84
2023/06/13 09:48:04;;;;;;;4.07;3.38;;;;;;;22.12;27.46;95260.38;4965798;28;20193;-83
2023/06/13 09:50:30;;;;;;;4.97;3.10;;;;;;;22.79;26.37;95260.91;4984088;28;20367;-84
2023/06/13 09:52:55;;;;;;;4.70;3.38;;;;;;;23.17;26.68;95263.94;4985941;28;20184;-83
2023/06/13 09:55:20;;;;;;;5.93;3.75;;;;;;;23.41;26.14;95262.03;4983509;28;20281;-83
2023/06/13 09:57:46;;;;;;;8.38;3.65;;;;;;;23.44;25.75;95261.56;4987696;28;20184;-83
2023/06/13 10:00:13;;;;;;;4.85;2.95;;;;;;;23.43;27.10;95257.31;4992618;28;20202;-84
2023/06/13 10:02:38;;;;;;;7.28;3.35;;;;;;;23.41;26.94;95242.66;4954255;28;20212;-83
2023/06/13 10:05:04;;;;;;;8.60;3.58;;;;;;;23.40;27.10;95255.09;4985584;28;20211;-84
2023/06/13 10:07:29;;;;;;;6.60;4.10;;;;;;;23.57;24.38;95257.03;4957261;28;21109;-83
2023/06/13 10:09:55;;;;;;;6.90;3.70;;;;;;;23.33;26.98;95258.94;4981723;28;20195;-84
2023/06/13 10:12:21;;;;;;;4.00;3.55;;;;;;;23.18;25.67;95264.72;4971375;28;20191;-85
2023/06/13 10:15:00;;;;;;;4.85;3.67;;;;;;;23.47;26.50;95247.03;4980898;28;20219;-84
2023/06/13 10:17:29;;;;;;;4.25;3.30;;;;;;;23.89;27.31;95246.78;4985435;28;20184;-83
2023/06/13 10:20:00;;;;;;;6.32;3.55;;;;;;;23.11;26.42;95254.25;4989579;28;20183;-83
2023/06/13 10:22:26;;;;;;;4.00;3.60;;;;;;;22.74;26.33;95248.38;4969901;28;20181;-83
2023/06/13 10:24:53;;;;;;;3.80;3.40;;;;;;;23.05;26.65;95244.59;4989927;28;20277;-83
2023/06/13 10:27:19;;;;;;;5.53;3.58;;;;;;;22.62;26.45;95255.53;4980012;28;20196;-84
2023/06/13 10:29:53;;;;;;;5.85;3.13;;;;;;;23.04;26.74;95264.16;4982591;28;20262;-82
2023/06/13 10:32:58;;;;;;;7.38;3.67;;;;;;;23.26;25.13;95252.97;5005502;28;20182;-83
2023/06/13 10:35:39;;;;;;;5.72;3.53;;;;;;;22.79;25.52;95253.81;5005054;28;20171;-85
2023/06/13 10:38:22;;;;;;;8.57;3.28;;;;;;;22.98;25.76;95257.16;5004682;28;20304;-82
2023/06/13 10:41:08;;;;;;;4.45;3.40;;;;;;;22.81;25.61;95246.44;5004612;28;20179;-84
2023/06/13 10:43:46;;;;;;;6.20;3.67;;;;;;;22.36;26.74;95248.84;4990571;28;20213;-84
2023/06/13 10:46:11;;;;;;;4.80;3.67;;;;;;;23.05;26.51;95241.13;4999797;28;20202;-83
2023/06/13 10:48:48;;;;;;;5.40;3.80;;;;;;;23.16;25.50;95246.44;4967934;28;20270;-85
2023/06/13 10:51:19;;;;;;;4.07;3.28;;;;;;;23.63;24.08;95237.56;4960685;28;20675;-83
2023/06/13 10:53:45;;;;;;;5.55;3.75;;;;;;;23.24;24.27;95249.75;4977788;28;20272;-85
2023/06/13 10:56:10;;;;;;;6.15;3.22;;;;;;;23.57;24.15;95244.56;4989784;28;20663;-83
2023/06/13 10:58:36;;;;;;;5.30;3.45;;;;;;;23.72;24.23;95241.44;4983669;28;20244;-82
2023/06/13 11:01:27;;;;;;;5.85;3.47;;;;;;;23.42;24.96;95246.94;4987080;28;20190;-85
2023/06/13 11:03:52;;;;;;;5.55;3.50;;;;;;;23.68;24.05;95243.78;4965836;28;20211;-85
2023/06/13 11:06:17;;;;;;;4.88;3.25;;;;;;;23.61;23.94;95248.41;4967717;28;20724;-84
2023/06/13 11:08:43;;;;;;;3.67;3.28;;;;;;;24.00;22.32;95243.28;4989197;28;20634;-85
2023/06/13 11:11:09;;;;;;;5.72;3.22;;;;;;;23.88;23.63;95248.66;4976594;28;21823;-84
2023/06/13 11:13:36;;;;;;;3.60;3.30;;;;;;;23.33;22.67;95251.81;4971089;28;20202;-84
2023/06/13 11:16:19;;;;;;;5.18;3.53;;;;;;;23.51;23.01;95250.03;4988658;28;20172;-85
2023/06/13 11:18:48;;;;;;;5.43;3.15;;;;;;;23.24;23.26;95263.81;4963385;28;20556;-84
2023/06/13 11:21:13;;;;;;;4.63;3.15;;;;;;;23.54;23.77;95247.72;4988570;28;20191;-84
2023/06/13 11:23:51;;;;;;;4.75;3.40;;;;;;;23.55;24.41;95243.22;4985456;28;20207;-84
2023/06/13 11:26:21;;;;;;;6.90;3.60;;;;;;;23.65;24.39;95240.78;4967520;28;20202;-83
2023/06/13 11:28:51;;;;;;;5.07;3.50;;;;;;;24.14;25.01;95235.84;4990270;28;20194;-82
2023/06/13 11:31:17;;;;;;;8.23;3.42;;;;;;;24.57;24.41;95220.13;4983867;28;20279;-83
2023/06/13 11:33:47;;;;;;;7.13;3.20;;;;;;;24.11;23.63;95215.06;4960570;28;20234;-85